sensor_id;sensor_type;location;lat;lon;timestamp;temperature;humidity
30174;DHT22;16985;50.814;8.530;2023-04-06T00:02:09;1.10;89.00
30174;DHT22;16985;50.814;8.530;2023-04-06T00:04:35;1.10;89.50
30174;DHT22;16985;50.814;8.530;2023-04-06T00:07:01;1.10;89.40
30174;DHT22;16985;50.814;8.530;2023-04-06T00:09:27;1.10;88.80
30174;DHT22;16985;50.814;8.530;2023-04-06T00:11:52;1.00;89.10
30174;DHT22;16985;50.814;8.530;2023-04-06T00:14:18;1.00;89.60
30174;DHT22;16985;50.814;8.530;2023-04-06T00:16:44;1.00;89.80
30174;DHT22;16985;50.814;8.530;2023-04-06T00:19:10;0.90;89.70
30174;DHT22;16985;50.814;8.530;2023-04-06T00:21:36;0.90;89.90
30174;DHT22;16985;50.814;8.530;2023-04-06T00:24:02;0.90;89.90
30174;DHT22;16985;50.814;8.530;2023-04-06T00:26:29;0.90;90.00
30174;DHT22;16985;50.814;8.530;2023-04-06T00:28:55;0.80;90.10
30174;DHT22;16985;50.814;8.530;2023-04-06T00:31:21;0.80;90.30
30174;DHT22;16985;50.814;8.530;2023-04-06T00:33:48;0.70;90.20
30174;DHT22;16985;50.814;8.530;2023-04-06T00:36:14;0.70;90.30
30174;DHT22;16985;50.814;8.530;2023-04-06T00:38:40;0.70;90.40
30174;DHT22;16985;50.814;8.530;2023-04-06T00:41:05;0.70;90.30
30174;DHT22;16985;50.814;8.530;2023-04-06T00:43:32;0.70;90.20
30174;DHT22;16985;50.814;8.530;2023-04-06T00:45:57;0.60;90.30
30174;DHT22;16985;50.814;8.530;2023-04-06T00:48:23;0.60;90.40
30174;DHT22;16985;50.814;8.530;2023-04-06T00:50:49;0.60;90.50
30174;DHT22;16985;50.814;8.530;2023-04-06T00:53:15;0.50;90.50
30174;DHT22;16985;50.814;8.530;2023-04-06T00:55:41;0.50;90.70
30174;DHT22;16985;50.814;8.530;2023-04-06T00:58:07;0.50;90.70
30174;DHT22;16985;50.814;8.530;2023-04-06T01:00:42;0.40;90.70
30174;DHT22;16985;50.814;8.530;2023-04-06T01:03:13;1.30;91.10
30174;DHT22;16985;50.814;8.530;2023-04-06T01:05:41;0.40;90.80
30174;DHT22;16985;50.814;8.530;2023-04-06T01:08:16;0.40;90.90
30174;DHT22;16985;50.814;8.530;2023-04-06T01:10:42;0.30;91.00
30174;DHT22;16985;50.814;8.530;2023-04-06T01:13:21;0.30;91.10
30174;DHT22;16985;50.814;8.530;2023-04-06T01:15:51;0.30;91.10
30174;DHT22;16985;50.814;8.530;2023-04-06T01:18:28;0.20;91.20
30174;DHT22;16985;50.814;8.530;2023-04-06T01:21:10;0.20;90.90
30174;DHT22;16985;50.814;8.530;2023-04-06T01:23:44;1.00;91.40
30174;DHT22;16985;50.814;8.530;2023-04-06T01:26:12;0.20;91.20
30174;DHT22;16985;50.814;8.530;2023-04-06T01:28:39;0.20;91.30
30174;DHT22;16985;50.814;8.530;2023-04-06T01:31:23;0.10;91.00
30174;DHT22;16985;50.814;8.530;2023-04-06T01:33:51;0.10;91.30
30174;DHT22;16985;50.814;8.530;2023-04-06T01:36:20;0.10;91.50
30174;DHT22;16985;50.814;8.530;2023-04-06T01:38:52;0.00;91.60
30174;DHT22;16985;50.814;8.530;2023-04-06T01:41:22;0.00;91.60
30174;DHT22;16985;50.814;8.530;2023-04-06T01:43:51;-0.10;91.70
30174;DHT22;16985;50.814;8.530;2023-04-06T01:46:21;-0.10;91.90
30174;DHT22;16985;50.814;8.530;2023-04-06T01:48:47;-0.10;91.90
30174;DHT22;16985;50.814;8.530;2023-04-06T01:51:18;-0.10;91.90
30174;DHT22;16985;50.814;8.530;2023-04-06T01:53:50;-0.10;91.90
30174;DHT22;16985;50.814;8.530;2023-04-06T01:56:18;-0.20;92.10
30174;DHT22;16985;50.814;8.530;2023-04-06T01:58:53;-0.20;92.10
30174;DHT22;16985;50.814;8.530;2023-04-06T02:01:20;-0.20;92.00
30174;DHT22;16985;50.814;8.530;2023-04-06T02:03:53;-0.30;92.10
30174;DHT22;16985;50.814;8.530;2023-04-06T02:06:20;-0.20;92.20
30174;DHT22;16985;50.814;8.530;2023-04-06T02:08:46;-0.30;91.80
30174;DHT22;16985;50.814;8.530;2023-04-06T02:11:12;-0.30;92.40
30174;DHT22;16985;50.814;8.530;2023-04-06T02:13:43;-0.30;92.40
30174;DHT22;16985;50.814;8.530;2023-04-06T02:16:10;-0.30;92.60
30174;DHT22;16985;50.814;8.530;2023-04-06T02:18:36;-0.30;92.20
30174;DHT22;16985;50.814;8.530;2023-04-06T02:21:02;-0.30;92.40
30174;DHT22;16985;50.814;8.530;2023-04-06T02:23:28;-0.30;92.40
30174;DHT22;16985;50.814;8.530;2023-04-06T02:25:56;-0.40;92.30
30174;DHT22;16985;50.814;8.530;2023-04-06T02:28:21;-0.40;92.40
30174;DHT22;16985;50.814;8.530;2023-04-06T02:30:47;-0.40;92.50
30174;DHT22;16985;50.814;8.530;2023-04-06T02:33:14;-0.50;92.50
30174;DHT22;16985;50.814;8.530;2023-04-06T02:35:44;-0.50;92.60
30174;DHT22;16985;50.814;8.530;2023-04-06T02:38:11;-0.50;92.70
30174;DHT22;16985;50.814;8.530;2023-04-06T02:40:36;-0.50;92.70
30174;DHT22;16985;50.814;8.530;2023-04-06T02:43:14;-0.60;92.80
30174;DHT22;16985;50.814;8.530;2023-04-06T02:45:40;-0.60;92.90
30174;DHT22;16985;50.814;8.530;2023-04-06T02:48:06;-0.60;93.00
30174;DHT22;16985;50.814;8.530;2023-04-06T02:50:32;-0.60;92.90
30174;DHT22;16985;50.814;8.530;2023-04-06T02:53:02;-0.70;93.00
30174;DHT22;16985;50.814;8.530;2023-04-06T02:55:28;-0.70;93.10
30174;DHT22;16985;50.814;8.530;2023-04-06T02:57:54;-0.70;93.10
30174;DHT22;16985;50.814;8.530;2023-04-06T03:00:24;0.20;93.60
30174;DHT22;16985;50.814;8.530;2023-04-06T03:02:50;-0.80;93.40
30174;DHT22;16985;50.814;8.530;2023-04-06T03:05:17;-0.70;93.60
30174;DHT22;16985;50.814;8.530;2023-04-06T03:07:45;-0.80;93.50
30174;DHT22;16985;50.814;8.530;2023-04-06T03:10:22;-0.80;93.70
30174;DHT22;16985;50.814;8.530;2023-04-06T03:12:49;-0.80;93.90
30174;DHT22;16985;50.814;8.530;2023-04-06T03:15:35;-0.90;93.90
30174;DHT22;16985;50.814;8.530;2023-04-06T03:18:11;-0.90;93.60
30174;DHT22;16985;50.814;8.530;2023-04-06T03:20:41;-0.80;93.70
30174;DHT22;16985;50.814;8.530;2023-04-06T03:23:08;-0.90;93.60
30174;DHT22;16985;50.814;8.530;2023-04-06T03:25:38;-0.90;93.70
30174;DHT22;16985;50.814;8.530;2023-04-06T03:28:06;-0.90;93.90
30174;DHT22;16985;50.814;8.530;2023-04-06T03:30:37;-1.00;94.00
30174;DHT22;16985;50.814;8.530;2023-04-06T03:33:03;-1.00;93.90
30174;DHT22;16985;50.814;8.530;2023-04-06T03:35:33;-1.00;94.00
30174;DHT22;16985;50.814;8.530;2023-04-06T03:37:59;-1.00;93.90
30174;DHT22;16985;50.814;8.530;2023-04-06T03:40:26;-1.10;93.90
30174;DHT22;16985;50.814;8.530;2023-04-06T03:42:52;-1.30;94.10
30174;DHT22;16985;50.814;8.530;2023-04-06T03:45:18;-1.10;94.20
30174;DHT22;16985;50.814;8.530;2023-04-06T03:47:47;-1.10;94.10
30174;DHT22;16985;50.814;8.530;2023-04-06T03:50:13;-1.10;94.20
30174;DHT22;16985;50.814;8.530;2023-04-06T03:52:39;-1.20;94.30
30174;DHT22;16985;50.814;8.530;2023-04-06T03:55:06;-1.20;94.60
30174;DHT22;16985;50.814;8.530;2023-04-06T03:57:33;-1.20;94.80
30174;DHT22;16985;50.814;8.530;2023-04-06T03:59:59;-1.20;94.60
30174;DHT22;16985;50.814;8.530;2023-04-06T04:02:25;-1.30;94.70
30174;DHT22;16985;50.814;8.530;2023-04-06T04:04:51;0.30;95.20
30174;DHT22;16985;50.814;8.530;2023-04-06T04:07:17;-1.30;94.80
30174;DHT22;16985;50.814;8.530;2023-04-06T04:09:43;-1.30;94.80
30174;DHT22;16985;50.814;8.530;2023-04-06T04:12:10;-1.30;94.80
30174;DHT22;16985;50.814;8.530;2023-04-06T04:14:35;-1.40;94.90
30174;DHT22;16985;50.814;8.530;2023-04-06T04:17:01;-1.40;95.00
30174;DHT22;16985;50.814;8.530;2023-04-06T04:19:27;-1.40;95.10
30174;DHT22;16985;50.814;8.530;2023-04-06T04:21:54;-1.40;95.00
30174;DHT22;16985;50.814;8.530;2023-04-06T04:24:28;-1.40;95.10
30174;DHT22;16985;50.814;8.530;2023-04-06T04:26:54;-1.40;95.30
30174;DHT22;16985;50.814;8.530;2023-04-06T04:29:22;-1.50;95.20
30174;DHT22;16985;50.814;8.530;2023-04-06T04:31:49;-1.40;95.30
30174;DHT22;16985;50.814;8.530;2023-04-06T04:34:17;-1.50;95.50
30174;DHT22;16985;50.814;8.530;2023-04-06T04:36:46;-1.50;95.80
30174;DHT22;16985;50.814;8.530;2023-04-06T04:39:19;-1.50;95.10
30174;DHT22;16985;50.814;8.530;2023-04-06T04:41:50;-1.50;95.50
30174;DHT22;16985;50.814;8.530;2023-04-06T04:44:16;-1.50;95.70
30174;DHT22;16985;50.814;8.530;2023-04-06T04:46:42;-1.50;95.40
30174;DHT22;16985;50.814;8.530;2023-04-06T04:49:10;-1.60;95.50
30174;DHT22;16985;50.814;8.530;2023-04-06T04:51:36;-1.60;95.80
30174;DHT22;16985;50.814;8.530;2023-04-06T04:54:15;-1.60;95.90
30174;DHT22;16985;50.814;8.530;2023-04-06T04:56:42;-1.60;95.80
30174;DHT22;16985;50.814;8.530;2023-04-06T04:59:21;-1.60;95.80
30174;DHT22;16985;50.814;8.530;2023-04-06T05:01:54;-1.70;95.90
30174;DHT22;16985;50.814;8.530;2023-04-06T05:04:22;-1.60;95.80
30174;DHT22;16985;50.814;8.530;2023-04-06T05:06:50;-1.70;96.10
30174;DHT22;16985;50.814;8.530;2023-04-06T05:09:17;-3.10;95.70
30174;DHT22;16985;50.814;8.530;2023-04-06T05:11:44;-1.70;96.30
30174;DHT22;16985;50.814;8.530;2023-04-06T05:14:10;-1.70;96.50
30174;DHT22;16985;50.814;8.530;2023-04-06T05:16:36;-1.70;96.30
30174;DHT22;16985;50.814;8.530;2023-04-06T05:19:02;-1.70;96.70
30174;DHT22;16985;50.814;8.530;2023-04-06T05:21:36;-1.70;96.50
30174;DHT22;16985;50.814;8.530;2023-04-06T05:24:06;-1.70;96.70
30174;DHT22;16985;50.814;8.530;2023-04-06T05:26:33;-1.70;96.60
30174;DHT22;16985;50.814;8.530;2023-04-06T05:29:05;-1.80;96.40
30174;DHT22;16985;50.814;8.530;2023-04-06T05:31:34;-1.80;96.30
30174;DHT22;16985;50.814;8.530;2023-04-06T05:34:00;-1.80;96.40
30174;DHT22;16985;50.814;8.530;2023-04-06T05:36:30;-1.70;96.10
30174;DHT22;16985;50.814;8.530;2023-04-06T05:38:59;-1.70;96.00
30174;DHT22;16985;50.814;8.530;2023-04-06T05:41:34;-1.60;96.00
30174;DHT22;16985;50.814;8.530;2023-04-06T05:44:00;-1.60;95.90
30174;DHT22;16985;50.814;8.530;2023-04-06T05:46:26;-1.60;95.80
30174;DHT22;16985;50.814;8.530;2023-04-06T05:48:54;-1.60;96.60
30174;DHT22;16985;50.814;8.530;2023-04-06T05:51:24;-1.50;96.30
30174;DHT22;16985;50.814;8.530;2023-04-06T05:53:50;-1.50;96.10
30174;DHT22;16985;50.814;8.530;2023-04-06T05:56:16;-1.50;96.30
30174;DHT22;16985;50.814;8.530;2023-04-06T05:58:42;-1.50;96.50
30174;DHT22;16985;50.814;8.530;2023-04-06T06:01:11;-1.50;96.30
30174;DHT22;16985;50.814;8.530;2023-04-06T06:03:41;-1.40;96.40
30174;DHT22;16985;50.814;8.530;2023-04-06T06:06:07;-1.40;96.60
30174;DHT22;16985;50.814;8.530;2023-04-06T06:08:43;-1.30;96.60
30174;DHT22;16985;50.814;8.530;2023-04-06T06:11:13;-0.30;97.00
30174;DHT22;16985;50.814;8.530;2023-04-06T06:13:39;-1.30;96.70
30174;DHT22;16985;50.814;8.530;2023-04-06T06:16:05;-1.30;97.30
30174;DHT22;16985;50.814;8.530;2023-04-06T06:18:33;-1.20;96.70
30174;DHT22;16985;50.814;8.530;2023-04-06T06:20:59;-1.20;97.40
30174;DHT22;16985;50.814;8.530;2023-04-06T06:23:25;-1.20;98.00
30174;DHT22;16985;50.814;8.530;2023-04-06T06:25:52;-1.10;97.50
30174;DHT22;16985;50.814;8.530;2023-04-06T06:28:20;-1.10;97.20
30174;DHT22;16985;50.814;8.530;2023-04-06T06:30:46;-1.00;96.60
30174;DHT22;16985;50.814;8.530;2023-04-06T06:33:16;-1.00;97.40
30174;DHT22;16985;50.814;8.530;2023-04-06T06:35:42;-0.90;96.60
30174;DHT22;16985;50.814;8.530;2023-04-06T06:38:08;-0.90;96.70
30174;DHT22;16985;50.814;8.530;2023-04-06T06:40:34;-0.80;97.10
30174;DHT22;16985;50.814;8.530;2023-04-06T06:43:00;-0.70;97.30
30174;DHT22;16985;50.814;8.530;2023-04-06T06:45:36;-0.60;97.40
30174;DHT22;16985;50.814;8.530;2023-04-06T06:48:02;-0.60;98.20
30174;DHT22;16985;50.814;8.530;2023-04-06T06:50:28;-0.50;98.30
30174;DHT22;16985;50.814;8.530;2023-04-06T06:52:54;-0.50;99.10
30174;DHT22;16985;50.814;8.530;2023-04-06T06:55:20;-0.40;99.90
30174;DHT22;16985;50.814;8.530;2023-04-06T06:57:46;-0.30;99.90
30174;DHT22;16985;50.814;8.530;2023-04-06T07:00:13;0.00;99.90
30174;DHT22;16985;50.814;8.530;2023-04-06T07:02:41;-0.20;99.90
30174;DHT22;16985;50.814;8.530;2023-04-06T07:05:07;-0.30;99.90
30174;DHT22;16985;50.814;8.530;2023-04-06T07:07:33;-0.10;99.90
30174;DHT22;16985;50.814;8.530;2023-04-06T07:09:59;-0.10;99.90
30174;DHT22;16985;50.814;8.530;2023-04-06T07:12:26;0.00;99.90
30174;DHT22;16985;50.814;8.530;2023-04-06T07:14:52;0.10;99.90
30174;DHT22;16985;50.814;8.530;2023-04-06T07:17:18;0.10;99.90
30174;DHT22;16985;50.814;8.530;2023-04-06T07:19:44;0.20;99.90
30174;DHT22;16985;50.814;8.530;2023-04-06T07:22:11;0.40;99.90
30174;DHT22;16985;50.814;8.530;2023-04-06T07:24:37;0.40;99.90
30174;DHT22;16985;50.814;8.530;2023-04-06T07:27:03;0.40;99.90
30174;DHT22;16985;50.814;8.530;2023-04-06T07:29:29;0.50;99.90
30174;DHT22;16985;50.814;8.530;2023-04-06T07:31:55;0.60;99.90
30174;DHT22;16985;50.814;8.530;2023-04-06T07:34:21;0.70;99.90
30174;DHT22;16985;50.814;8.530;2023-04-06T07:36:51;1.80;99.90
30174;DHT22;16985;50.814;8.530;2023-04-06T07:39:19;0.90;99.90
30174;DHT22;16985;50.814;8.530;2023-04-06T07:41:46;1.50;99.90
30174;DHT22;16985;50.814;8.530;2023-04-06T07:44:11;1.70;99.90
30174;DHT22;16985;50.814;8.530;2023-04-06T07:46:38;1.30;99.90
30174;DHT22;16985;50.814;8.530;2023-04-06T07:49:04;1.40;99.90
30174;DHT22;16985;50.814;8.530;2023-04-06T07:51:32;1.50;99.90
30174;DHT22;16985;50.814;8.530;2023-04-06T07:53:58;1.60;99.90
30174;DHT22;16985;50.814;8.530;2023-04-06T07:56:24;2.60;99.90
30174;DHT22;16985;50.814;8.530;2023-04-06T07:58:50;1.90;99.90
30174;DHT22;16985;50.814;8.530;2023-04-06T08:01:16;2.90;99.90
30174;DHT22;16985;50.814;8.530;2023-04-06T08:03:42;2.20;98.60
30174;DHT22;16985;50.814;8.530;2023-04-06T08:06:07;2.30;97.40
30174;DHT22;16985;50.814;8.530;2023-04-06T08:08:33;2.40;96.60
30174;DHT22;16985;50.814;8.530;2023-04-06T08:10:59;1.70;95.90
30174;DHT22;16985;50.814;8.530;2023-04-06T08:13:25;2.70;95.50
30174;DHT22;16985;50.814;8.530;2023-04-06T08:15:51;2.90;94.60
30174;DHT22;16985;50.814;8.530;2023-04-06T08:18:16;3.00;94.70
30174;DHT22;16985;50.814;8.530;2023-04-06T08:20:42;3.10;94.00
30174;DHT22;16985;50.814;8.530;2023-04-06T08:23:08;3.30;93.80
30174;DHT22;16985;50.814;8.530;2023-04-06T08:25:35;3.40;93.80
30174;DHT22;16985;50.814;8.530;2023-04-06T08:28:02;3.50;93.10
30174;DHT22;16985;50.814;8.530;2023-04-06T08:30:29;3.70;93.30
30174;DHT22;16985;50.814;8.530;2023-04-06T08:32:55;3.80;92.30
30174;DHT22;16985;50.814;8.530;2023-04-06T08:35:21;4.00;92.30
30174;DHT22;16985;50.814;8.530;2023-04-06T08:37:48;4.10;92.00
30174;DHT22;16985;50.814;8.530;2023-04-06T08:40:17;4.30;91.70
30174;DHT22;16985;50.814;8.530;2023-04-06T08:42:52;4.40;92.10
30174;DHT22;16985;50.814;8.530;2023-04-06T08:45:22;5.20;91.60
30174;DHT22;16985;50.814;8.530;2023-04-06T08:47:50;5.60;91.30
30174;DHT22;16985;50.814;8.530;2023-04-06T08:50:17;5.40;90.80
30174;DHT22;16985;50.814;8.530;2023-04-06T08:52:47;6.30;90.70
30174;DHT22;16985;50.814;8.530;2023-04-06T08:55:14;6.10;89.10
30174;DHT22;16985;50.814;8.530;2023-04-06T08:57:42;5.30;88.60
30174;DHT22;16985;50.814;8.530;2023-04-06T09:00:10;5.80;88.40
30174;DHT22;16985;50.814;8.530;2023-04-06T09:02:39;5.50;87.70
30174;DHT22;16985;50.814;8.530;2023-04-06T09:05:09;6.70;87.70
30174;DHT22;16985;50.814;8.530;2023-04-06T09:07:38;6.30;87.70
30174;DHT22;16985;50.814;8.530;2023-04-06T09:10:21;6.80;87.40
30174;DHT22;16985;50.814;8.530;2023-04-06T09:12:49;6.80;84.00
30174;DHT22;16985;50.814;8.530;2023-04-06T09:15:30;6.50;81.90
30174;DHT22;16985;50.814;8.530;2023-04-06T09:17:56;7.70;82.50
30174;DHT22;16985;50.814;8.530;2023-04-06T09:20:23;6.90;81.20
30174;DHT22;16985;50.814;8.530;2023-04-06T09:22:56;8.40;80.20
30174;DHT22;16985;50.814;8.530;2023-04-06T09:25:25;8.30;79.90
30174;DHT22;16985;50.814;8.530;2023-04-06T09:28:04;8.30;79.00
30174;DHT22;16985;50.814;8.530;2023-04-06T09:30:32;8.80;78.80
30174;DHT22;16985;50.814;8.530;2023-04-06T09:33:00;9.20;78.70
30174;DHT22;16985;50.814;8.530;2023-04-06T09:35:26;9.30;78.50
30174;DHT22;16985;50.814;8.530;2023-04-06T09:37:55;8.90;76.00
30174;DHT22;16985;50.814;8.530;2023-04-06T09:40:31;9.30;76.60
30174;DHT22;16985;50.814;8.530;2023-04-06T09:42:57;9.20;75.30
30174;DHT22;16985;50.814;8.530;2023-04-06T09:45:26;9.20;76.10
30174;DHT22;16985;50.814;8.530;2023-04-06T09:47:52;8.90;72.70
30174;DHT22;16985;50.814;8.530;2023-04-06T09:50:22;10.30;73.80
30174;DHT22;16985;50.814;8.530;2023-04-06T09:52:50;9.10;70.70
30174;DHT22;16985;50.814;8.530;2023-04-06T09:55:41;10.50;71.50
30174;DHT22;16985;50.814;8.530;2023-04-06T09:58:13;9.70;71.50
30174;DHT22;16985;50.814;8.530;2023-04-06T10:01:09;10.90;72.10
30174;DHT22;16985;50.814;8.530;2023-04-06T10:04:04;9.70;71.10
30174;DHT22;16985;50.814;8.530;2023-04-06T10:06:38;8.90;70.30
30174;DHT22;16985;50.814;8.530;2023-04-06T10:09:04;10.10;69.90
30174;DHT22;16985;50.814;8.530;2023-04-06T10:11:33;10.70;70.20
30174;DHT22;16985;50.814;8.530;2023-04-06T10:14:03;10.30;69.10
30174;DHT22;16985;50.814;8.530;2023-04-06T10:16:41;10.50;68.40
30174;DHT22;16985;50.814;8.530;2023-04-06T10:19:27;11.40;68.80
30174;DHT22;16985;50.814;8.530;2023-04-06T10:21:59;10.80;68.50
30174;DHT22;16985;50.814;8.530;2023-04-06T10:24:26;11.80;66.70
30174;DHT22;16985;50.814;8.530;2023-04-06T10:27:02;11.10;68.40
30174;DHT22;16985;50.814;8.530;2023-04-06T10:29:40;11.10;65.80
30174;DHT22;16985;50.814;8.530;2023-04-06T10:32:09;12.90;65.20
30174;DHT22;16985;50.814;8.530;2023-04-06T10:34:40;12.60;67.00
30174;DHT22;16985;50.814;8.530;2023-04-06T10:37:25;12.10;64.20
30174;DHT22;16985;50.814;8.530;2023-04-06T10:41:03;11.60;62.10
30174;DHT22;16985;50.814;8.530;2023-04-06T10:43:58;13.30;62.70
30174;DHT22;16985;50.814;8.530;2023-04-06T10:46:53;12.30;61.80
30174;DHT22;16985;50.814;8.530;2023-04-06T10:49:30;12.20;62.70
30174;DHT22;16985;50.814;8.530;2023-04-06T10:52:46;11.30;60.10
30174;DHT22;16985;50.814;8.530;2023-04-06T10:55:58;12.70;62.20
30174;DHT22;16985;50.814;8.530;2023-04-06T10:58:27;14.50;64.50
30174;DHT22;16985;50.814;8.530;2023-04-06T11:00:54;13.60;62.00
30174;DHT22;16985;50.814;8.530;2023-04-06T11:03:21;13.40;59.40
30174;DHT22;16985;50.814;8.530;2023-04-06T11:05:48;13.80;60.40
30174;DHT22;16985;50.814;8.530;2023-04-06T11:08:29;14.80;59.90
30174;DHT22;16985;50.814;8.530;2023-04-06T11:11:09;13.60;58.70
30174;DHT22;16985;50.814;8.530;2023-04-06T11:13:51;13.60;58.60
30174;DHT22;16985;50.814;8.530;2023-04-06T11:16:23;13.70;58.00
30174;DHT22;16985;50.814;8.530;2023-04-06T11:19:00;13.20;56.70
30174;DHT22;16985;50.814;8.530;2023-04-06T11:21:42;12.80;56.80
30174;DHT22;16985;50.814;8.530;2023-04-06T11:24:19;14.20;56.20
30174;DHT22;16985;50.814;8.530;2023-04-06T11:26:58;15.90;55.40
30174;DHT22;16985;50.814;8.530;2023-04-06T11:29:28;14.40;54.30
30174;DHT22;16985;50.814;8.530;2023-04-06T11:32:00;14.60;54.20
30174;DHT22;16985;50.814;8.530;2023-04-06T11:34:28;15.70;55.20
30174;DHT22;16985;50.814;8.530;2023-04-06T11:36:57;14.60;54.60
30174;DHT22;16985;50.814;8.530;2023-04-06T11:39:27;15.50;55.10
30174;DHT22;16985;50.814;8.530;2023-04-06T11:42:00;15.50;55.40
30174;DHT22;16985;50.814;8.530;2023-04-06T11:44:35;14.70;54.50
30174;DHT22;16985;50.814;8.530;2023-04-06T11:47:07;14.60;53.50
30174;DHT22;16985;50.814;8.530;2023-04-06T11:49:37;15.70;52.80
30174;DHT22;16985;50.814;8.530;2023-04-06T11:52:22;14.80;52.30
30174;DHT22;16985;50.814;8.530;2023-04-06T11:54:50;14.70;51.20
30174;DHT22;16985;50.814;8.530;2023-04-06T11:57:19;15.70;52.30
30174;DHT22;16985;50.814;8.530;2023-04-06T11:59:46;15.90;52.70
30174;DHT22;16985;50.814;8.530;2023-04-06T12:02:14;15.70;53.70
30174;DHT22;16985;50.814;8.530;2023-04-06T12:04:40;15.80;53.90
30174;DHT22;16985;50.814;8.530;2023-04-06T12:09:32;14.50;51.60
30174;DHT22;16985;50.814;8.530;2023-04-06T12:12:01;14.80;55.10
30174;DHT22;16985;50.814;8.530;2023-04-06T12:14:27;14.60;53.50
30174;DHT22;16985;50.814;8.530;2023-04-06T12:16:53;15.10;54.30
30174;DHT22;16985;50.814;8.530;2023-04-06T12:19:19;14.90;53.20
30174;DHT22;16985;50.814;8.530;2023-04-06T12:21:46;16.10;54.30
30174;DHT22;16985;50.814;8.530;2023-04-06T12:24:12;16.30;55.30
30174;DHT22;16985;50.814;8.530;2023-04-06T12:31:34;14.20;51.10
30174;DHT22;16985;50.814;8.530;2023-04-06T12:36:28;14.00;55.00
30174;DHT22;16985;50.814;8.530;2023-04-06T12:38:54;14.80;53.90
30174;DHT22;16985;50.814;8.530;2023-04-06T12:41:21;16.20;53.60
30174;DHT22;16985;50.814;8.530;2023-04-06T12:43:48;14.00;53.60
30174;DHT22;16985;50.814;8.530;2023-04-06T12:46:13;14.00;52.10
30174;DHT22;16985;50.814;8.530;2023-04-06T12:48:39;15.20;53.70
30174;DHT22;16985;50.814;8.530;2023-04-06T12:51:06;15.30;55.40
30174;DHT22;16985;50.814;8.530;2023-04-06T12:53:33;16.20;53.80
30174;DHT22;16985;50.814;8.530;2023-04-06T12:56:00;15.20;53.30
30174;DHT22;16985;50.814;8.530;2023-04-06T12:58:27;15.60;53.50
30174;DHT22;16985;50.814;8.530;2023-04-06T13:00:57;16.10;54.80
30174;DHT22;16985;50.814;8.530;2023-04-06T13:03:28;16.60;56.40
30174;DHT22;16985;50.814;8.530;2023-04-06T13:05:55;14.10;58.10
30174;DHT22;16985;50.814;8.530;2023-04-06T13:08:20;14.00;52.80
30174;DHT22;16985;50.814;8.530;2023-04-06T13:10:47;14.10;52.00
30174;DHT22;16985;50.814;8.530;2023-04-06T13:13:15;15.80;53.30
30174;DHT22;16985;50.814;8.530;2023-04-06T13:15:41;16.30;52.70
30174;DHT22;16985;50.814;8.530;2023-04-06T13:18:08;14.20;51.60
30174;DHT22;16985;50.814;8.530;2023-04-06T13:20:34;14.00;52.20
30174;DHT22;16985;50.814;8.530;2023-04-06T13:23:00;14.00;52.20
30174;DHT22;16985;50.814;8.530;2023-04-06T13:25:26;14.80;52.70
30174;DHT22;16985;50.814;8.530;2023-04-06T13:27:52;14.10;52.70
30174;DHT22;16985;50.814;8.530;2023-04-06T13:30:17;15.40;53.50
30174;DHT22;16985;50.814;8.530;2023-04-06T13:32:43;14.20;52.80
30174;DHT22;16985;50.814;8.530;2023-04-06T13:35:09;15.20;53.50
30174;DHT22;16985;50.814;8.530;2023-04-06T13:37:35;14.70;52.80
30174;DHT22;16985;50.814;8.530;2023-04-06T13:40:04;14.20;52.20
30174;DHT22;16985;50.814;8.530;2023-04-06T13:42:31;14.30;52.40
30174;DHT22;16985;50.814;8.530;2023-04-06T13:44:57;14.30;52.40
30174;DHT22;16985;50.814;8.530;2023-04-06T13:47:24;14.30;53.00
30174;DHT22;16985;50.814;8.530;2023-04-06T13:49:51;14.30;52.10
30174;DHT22;16985;50.814;8.530;2023-04-06T13:52:18;14.30;52.20
30174;DHT22;16985;50.814;8.530;2023-04-06T13:54:44;14.30;51.70
30174;DHT22;16985;50.814;8.530;2023-04-06T13:57:10;16.60;53.40
30174;DHT22;16985;50.814;8.530;2023-04-06T13:59:38;14.60;52.70
30174;DHT22;16985;50.814;8.530;2023-04-06T14:02:07;14.50;54.00
30174;DHT22;16985;50.814;8.530;2023-04-06T14:04:35;14.60;52.40
30174;DHT22;16985;50.814;8.530;2023-04-06T14:07:02;14.90;52.10
30174;DHT22;16985;50.814;8.530;2023-04-06T14:09:29;14.90;52.10
30174;DHT22;16985;50.814;8.530;2023-04-06T14:11:55;14.60;50.70
30174;DHT22;16985;50.814;8.530;2023-04-06T14:14:22;14.40;51.20
30174;DHT22;16985;50.814;8.530;2023-04-06T14:16:48;16.40;52.30
30174;DHT22;16985;50.814;8.530;2023-04-06T14:19:16;14.40;51.40
30174;DHT22;16985;50.814;8.530;2023-04-06T14:21:46;14.30;52.00
30174;DHT22;16985;50.814;8.530;2023-04-06T14:24:14;14.60;52.20
30174;DHT22;16985;50.814;8.530;2023-04-06T14:26:41;14.60;52.50
30174;DHT22;16985;50.814;8.530;2023-04-06T14:29:08;14.10;52.20
30174;DHT22;16985;50.814;8.530;2023-04-06T14:31:35;15.90;53.50
30174;DHT22;16985;50.814;8.530;2023-04-06T14:34:02;14.30;53.00
30174;DHT22;16985;50.814;8.530;2023-04-06T14:36:32;14.00;53.50
30174;DHT22;16985;50.814;8.530;2023-04-06T14:39:04;15.70;54.40
30174;DHT22;16985;50.814;8.530;2023-04-06T14:41:31;13.70;53.80
30174;DHT22;16985;50.814;8.530;2023-04-06T14:43:58;13.80;53.70
30174;DHT22;16985;50.814;8.530;2023-04-06T14:46:24;13.80;53.80
30174;DHT22;16985;50.814;8.530;2023-04-06T14:48:51;14.90;55.30
30174;DHT22;16985;50.814;8.530;2023-04-06T14:51:16;13.90;54.50
30174;DHT22;16985;50.814;8.530;2023-04-06T14:53:42;15.50;55.50
30174;DHT22;16985;50.814;8.530;2023-04-06T14:56:08;13.70;54.70
30174;DHT22;16985;50.814;8.530;2023-04-06T14:58:34;13.70;54.70
30174;DHT22;16985;50.814;8.530;2023-04-06T15:01:01;13.70;54.70
30174;DHT22;16985;50.814;8.530;2023-04-06T15:03:28;14.90;55.10
30174;DHT22;16985;50.814;8.530;2023-04-06T15:05:55;14.90;55.50
30174;DHT22;16985;50.814;8.530;2023-04-06T15:08:22;13.40;54.30
30174;DHT22;16985;50.814;8.530;2023-04-06T15:10:49;13.30;54.60
30174;DHT22;16985;50.814;8.530;2023-04-06T15:13:15;13.40;54.60
30174;DHT22;16985;50.814;8.530;2023-04-06T15:15:42;13.30;54.60
30174;DHT22;16985;50.814;8.530;2023-04-06T15:18:08;13.20;55.10
30174;DHT22;16985;50.814;8.530;2023-04-06T15:20:35;13.20;54.80
30174;DHT22;16985;50.814;8.530;2023-04-06T15:23:02;13.10;55.00
30174;DHT22;16985;50.814;8.530;2023-04-06T15:25:28;13.10;55.40
30174;DHT22;16985;50.814;8.530;2023-04-06T15:27:55;13.00;55.20
30174;DHT22;16985;50.814;8.530;2023-04-06T15:30:21;12.90;55.70
30174;DHT22;16985;50.814;8.530;2023-04-06T15:32:56;12.90;56.10
30174;DHT22;16985;50.814;8.530;2023-04-06T15:35:26;12.80;56.30
30174;DHT22;16985;50.814;8.530;2023-04-06T15:37:54;12.80;56.60
30174;DHT22;16985;50.814;8.530;2023-04-06T15:40:23;12.60;56.50
30174;DHT22;16985;50.814;8.530;2023-04-06T15:42:49;12.60;56.40
30174;DHT22;16985;50.814;8.530;2023-04-06T15:45:16;15.20;58.10
30174;DHT22;16985;50.814;8.530;2023-04-06T15:47:43;12.50;57.00
30174;DHT22;16985;50.814;8.530;2023-04-06T15:50:11;12.50;57.00
30174;DHT22;16985;50.814;8.530;2023-04-06T15:52:38;12.40;56.60
30174;DHT22;16985;50.814;8.530;2023-04-06T15:55:06;12.40;56.60
30174;DHT22;16985;50.814;8.530;2023-04-06T15:57:32;12.30;56.80